Time;durP1;ratioP1;P1;durP2;ratioP2;P2;SDS_P1;SDS_P2;PMS_P1;PMS_P2;Temp;Humidity;BMP_temperature;BMP_pressure;BME280_temperature;BME280_humidity;BME280_pressure;Samples;Min_cycle;Max_cycle;Signal;HPM_P1;HPM_P2
2021/12/17 00:02:53;;;;;;;72.47;31.53;;;10.40;99.90;;;;;;5095954;28;20514;-81
2021/12/17 00:05:03;;;;;;;67.10;34.40;;;10.40;99.90;;;;;;5102861;28;20492;-82
2021/12/17 00:07:31;;;;;;;75.93;35.20;;;10.40;99.90;;;;;;5106951;28;20533;-82
2021/12/17 00:10:00;;;;;;;71.20;33.00;;;10.40;99.90;;;;;;5100958;28;20461;-82
2021/12/17 00:12:29;;;;;;;66.17;32.30;;;10.50;99.90;;;;;;5102999;28;20524;-82
2021/12/17 00:14:57;;;;;;;91.20;37.83;;;10.40;99.90;;;;;;5100199;28;20466;-82
2021/12/17 00:17:29;;;;;;;87.17;38.17;;;10.40;99.90;;;;;;5106430;28;20596;-82
2021/12/17 00:20:22;;;;;;;102.77;37.80;;;10.40;99.90;;;;;;5115989;28;20455;-82
2021/12/17 00:50:33;;;;;;;105.60;43.00;;;10.50;99.90;;;;;;5110105;28;20447;-83
2021/12/17 00:53:00;;;;;;;109.37;39.87;;;10.40;99.90;;;;;;5098159;28;21068;-82
2021/12/17 00:55:27;;;;;;;86.87;38.73;;;10.40;99.90;;;;;;5108997;28;20461;-83
2021/12/17 00:57:53;;;;;;;92.20;41.70;;;10.50;99.90;;;;;;5110691;28;20444;-83
2021/12/17 01:00:24;;;;;;;87.33;37.30;;;10.50;99.90;;;;;;5100528;28;20825;-83
2021/12/17 01:02:51;;;;;;;85.23;35.37;;;10.50;99.90;;;;;;5110569;28;20482;-83
2021/12/17 01:05:21;;;;;;;103.83;41.30;;;10.50;99.90;;;;;;5102237;28;20450;-83
2021/12/17 01:07:51;;;;;;;92.37;37.77;;;10.40;99.90;;;;;;5097801;28;20456;-83
2021/12/17 01:10:21;;;;;;;99.27;40.27;;;10.40;99.90;;;;;;5108683;28;20831;-82
2021/12/17 01:12:48;;;;;;;110.87;43.90;;;10.50;99.90;;;;;;5104303;28;20465;-82
2021/12/17 01:15:18;;;;;;;122.67;45.40;;;10.50;99.90;;;;;;5107039;28;20526;-82
2021/12/17 01:17:49;;;;;;;111.87;43.57;;;10.40;99.90;;;;;;5108234;28;20449;-82
2021/12/17 01:20:29;;;;;;;111.93;40.97;;;10.50;99.90;;;;;;5115373;28;20457;-82
2021/12/17 01:23:14;;;;;;;103.27;42.23;;;10.50;99.90;;;;;;5115499;28;21011;-82
2021/12/17 01:35:19;;;;;;;125.40;45.97;;;10.40;99.90;;;;;;5103598;28;20549;-82
2021/12/17 01:37:23;;;;;;;112.47;42.40;;;10.40;99.90;;;;;;5103346;28;20550;-83
2021/12/17 01:42:29;;;;;;;107.97;41.40;;;10.40;99.90;;;;;;5105635;28;20490;-82
2021/12/17 01:44:56;;;;;;;100.73;40.00;;;10.40;99.90;;;;;;5113761;28;20827;-82
2021/12/17 01:47:22;;;;;;;121.43;43.77;;;10.40;99.90;;;;;;5103065;28;20453;-84
2021/12/17 02:00:56;;;;;;;94.40;39.60;;;10.40;99.90;;;;;;5119274;28;20496;-82
2021/12/17 02:03:24;;;;;;;101.40;39.87;;;10.40;99.90;;;;;;5096510;28;20482;-82
2021/12/17 02:05:52;;;;;;;105.63;38.30;;;10.40;99.90;;;;;;5110775;28;20481;-82
2021/12/17 02:08:19;;;;;;;103.53;37.80;;;10.40;99.90;;;;;;5115287;28;20489;-82
2021/12/17 02:11:37;;;;;;;107.77;40.90;;;10.40;99.90;;;;;;5112791;28;20455;-82
2021/12/17 02:19:48;;;;;;;101.73;39.23;;;10.40;99.90;;;;;;5096302;28;20959;-83
2021/12/17 02:22:59;;;;;;;112.47;39.70;;;10.40;99.90;;;;;;5096195;28;20495;-83
2021/12/17 02:31:22;;;;;;;100.50;37.27;;;10.40;99.90;;;;;;5044146;28;20576;-83
2021/12/17 02:33:49;;;;;;;98.70;38.00;;;10.40;99.90;;;;;;5037991;28;20513;-81
2021/12/17 02:36:19;;;;;;;83.57;36.43;;;10.40;99.90;;;;;;5072281;28;20469;-82
2021/12/17 02:38:48;;;;;;;89.80;36.00;;;10.40;99.90;;;;;;5095321;28;20448;-82
2021/12/17 02:46:43;;;;;;;88.40;36.87;;;10.40;99.90;;;;;;5098149;28;20482;-83
2021/12/17 02:49:10;;;;;;;94.50;37.40;;;10.40;99.90;;;;;;5096356;28;20479;-82
2021/12/17 02:51:37;;;;;;;100.73;39.10;;;10.40;99.90;;;;;;5114024;28;20447;-82
2021/12/17 02:54:06;;;;;;;89.50;37.90;;;10.40;99.90;;;;;;5108307;28;20467;-82
2021/12/17 02:56:33;;;;;;;97.47;36.60;;;10.40;99.90;;;;;;5115575;28;20456;-82
2021/12/17 02:59:02;;;;;;;94.20;37.27;;;10.40;99.90;;;;;;5095073;28;20995;-82
2021/12/17 03:01:29;;;;;;;94.00;36.50;;;10.40;99.90;;;;;;5094495;28;20448;-82
2021/12/17 03:03:57;;;;;;;84.43;34.80;;;10.40;99.90;;;;;;5109569;28;20479;-82
2021/12/17 03:06:24;;;;;;;99.90;37.40;;;10.40;99.90;;;;;;5114904;28;20451;-83
2021/12/17 03:08:51;;;;;;;91.93;36.97;;;10.40;99.90;;;;;;5097259;28;20820;-82
2021/12/17 03:11:19;;;;;;;98.93;36.67;;;10.50;99.90;;;;;;5095467;28;20456;-82
2021/12/17 03:13:48;;;;;;;80.27;35.20;;;10.40;99.90;;;;;;5115152;28;20542;-82
2021/12/17 03:16:26;;;;;;;105.57;36.63;;;10.40;99.90;;;;;;5120190;28;20535;-82
2021/12/17 03:19:02;;;;;;;95.50;34.97;;;10.40;99.90;;;;;;5095920;28;20450;-83
2021/12/17 03:24:18;;;;;;;84.07;33.83;;;10.40;99.90;;;;;;5103314;28;20461;-83
2021/12/17 03:26:47;;;;;;;85.67;34.80;;;10.40;99.90;;;;;;5107670;28;20486;-84
2021/12/17 03:29:14;;;;;;;90.77;36.00;;;10.40;99.90;;;;;;5122196;28;20458;-84
2021/12/17 03:31:41;;;;;;;83.13;35.83;;;10.40;99.90;;;;;;5112897;28;20474;-83
2021/12/17 03:34:17;;;;;;;99.87;36.80;;;10.40;99.90;;;;;;5116881;28;20851;-84
2021/12/17 03:36:47;;;;;;;96.07;37.83;;;10.40;99.90;;;;;;5112439;28;20527;-84
2021/12/17 03:39:15;;;;;;;80.70;35.87;;;10.40;99.90;;;;;;5119731;28;20559;-83
2021/12/17 03:41:48;;;;;;;84.77;32.17;;;10.40;99.90;;;;;;5108197;28;20483;-83
2021/12/17 03:44:16;;;;;;;86.33;36.00;;;10.40;99.90;;;;;;5113828;28;20503;-84
2021/12/17 03:46:46;;;;;;;89.70;36.13;;;10.40;99.90;;;;;;5109213;28;20832;-83
2021/12/17 03:49:12;;;;;;;86.70;34.17;;;10.40;99.90;;;;;;5105274;28;20455;-83
2021/12/17 03:51:48;;;;;;;105.37;36.60;;;10.40;99.90;;;;;;5108513;28;20443;-83
2021/12/17 03:54:15;;;;;;;78.87;34.50;;;10.40;99.90;;;;;;5102720;28;20474;-83
2021/12/17 03:56:42;;;;;;;87.93;34.53;;;10.40;99.90;;;;;;5098044;28;20471;-82
2021/12/17 03:59:10;;;;;;;90.50;36.80;;;10.40;99.90;;;;;;5100109;28;20455;-82
2021/12/17 04:01:40;;;;;;;105.40;37.47;;;10.40;99.90;;;;;;5105583;28;20460;-82
2021/12/17 04:04:07;;;;;;;95.20;37.87;;;10.40;99.90;;;;;;5119527;28;20476;-83
2021/12/17 04:06:34;;;;;;;95.37;37.53;;;10.50;99.90;;;;;;5117250;28;20491;-83
2021/12/17 04:09:01;;;;;;;89.40;36.43;;;10.40;99.90;;;;;;5098031;28;20446;-83
2021/12/17 04:11:30;;;;;;;86.17;37.63;;;10.50;99.90;;;;;;5102918;28;20451;-83
2021/12/17 04:13:57;;;;;;;85.17;38.63;;;10.50;99.90;;;;;;5098056;28;20477;-83
2021/12/17 04:16:29;;;;;;;97.60;40.23;;;10.50;99.90;;;;;;5098308;28;20464;-83
2021/12/17 04:18:58;;;;;;;96.07;37.13;;;10.50;99.90;;;;;;5118777;28;20463;-83
2021/12/17 04:21:25;;;;;;;93.73;36.80;;;10.50;99.90;;;;;;5114508;28;20454;-83
2021/12/17 04:23:53;;;;;;;99.53;37.57;;;10.50;99.90;;;;;;5118228;28;20484;-83
2021/12/17 04:26:22;;;;;;;100.90;36.83;;;10.50;99.90;;;;;;5117752;28;20543;-84
2021/12/17 04:28:51;;;;;;;93.47;39.40;;;10.50;99.90;;;;;;5102863;28;20459;-83
2021/12/17 04:31:20;;;;;;;100.30;38.00;;;10.40;99.90;;;;;;5115424;28;20968;-83
2021/12/17 04:33:46;;;;;;;98.93;40.70;;;10.50;99.90;;;;;;5100846;28;20462;-83
2021/12/17 04:36:22;;;;;;;90.43;36.70;;;10.50;99.90;;;;;;5098339;28;20455;-83
2021/12/17 04:38:48;;;;;;;100.77;37.33;;;10.50;99.90;;;;;;5107029;28;20956;-83
2021/12/17 04:41:39;;;;;;;113.30;41.40;;;10.50;99.90;;;;;;5114138;28;20492;-84
2021/12/17 04:44:12;;;;;;;95.37;38.10;;;10.50;99.90;;;;;;5104027;28;20593;-82
2021/12/17 04:46:44;;;;;;;94.80;38.90;;;10.50;99.90;;;;;;5107653;28;20549;-83
2021/12/17 04:57:30;;;;;;;104.83;40.77;;;10.50;99.90;;;;;;5103848;28;20481;-81
2021/12/17 05:00:03;;;;;;;87.43;38.20;;;10.50;99.90;;;;;;5102224;28;20443;-82
2021/12/17 05:02:32;;;;;;;92.67;37.37;;;10.50;99.90;;;;;;5100558;28;20479;-82
2021/12/17 05:05:05;;;;;;;98.07;38.53;;;10.50;99.90;;;;;;5096269;28;20471;-83
2021/12/17 05:07:34;;;;;;;80.60;34.53;;;10.50;99.90;;;;;;5096123;28;20460;-82
2021/12/17 05:10:09;;;;;;;74.70;33.90;;;10.50;99.90;;;;;;5096118;28;20452;-81
2021/12/17 05:18:24;;;;;;;80.50;34.03;;;10.40;99.90;;;;;;5097389;28;20522;-82
2021/12/17 05:20:56;;;;;;;90.97;36.03;;;10.40;99.90;;;;;;5100873;28;20472;-83
2021/12/17 05:23:29;;;;;;;86.77;36.50;;;10.40;99.90;;;;;;5103049;28;20630;-83
2021/12/17 05:25:56;;;;;;;80.83;36.33;;;10.40;99.90;;;;;;5116544;28;20544;-82
2021/12/17 05:28:24;;;;;;;78.37;35.87;;;10.40;99.90;;;;;;5117158;28;20458;-82
2021/12/17 05:30:51;;;;;;;83.33;34.80;;;10.40;99.90;;;;;;5114033;28;20443;-82
2021/12/17 05:33:20;;;;;;;68.63;32.80;;;10.40;99.90;;;;;;5104809;28;20563;-82
2021/12/17 05:35:48;;;;;;;63.77;34.00;;;10.40;99.90;;;;;;5106647;28;20453;-83
2021/12/17 05:38:17;;;;;;;62.83;31.20;;;10.30;99.90;;;;;;5099469;28;20452;-84
2021/12/17 05:40:46;;;;;;;74.33;34.33;;;10.30;99.90;;;;;;5116437;28;20821;-83
2021/12/17 05:43:15;;;;;;;17.10;10.17;;;10.20;99.90;;;;;;5108234;28;20496;-81
2021/12/17 05:45:52;;;;;;;26.77;15.63;;;10.70;99.90;;;;;;5103958;28;20452;-81
2021/12/17 05:48:21;;;;;;;36.73;20.67;;;12.00;99.90;;;;;;5117697;28;20459;-83
2021/12/17 05:50:50;;;;;;;38.00;22.80;;;12.40;99.90;;;;;;5116094;28;20559;-80
2021/12/17 05:53:17;;;;;;;38.73;20.80;;;12.60;99.90;;;;;;5098447;28;20473;-82
2021/12/17 05:55:45;;;;;;;39.77;21.87;;;12.90;99.90;;;;;;5102634;28;20453;-81
2021/12/17 05:58:12;;;;;;;37.47;21.80;;;13.00;99.90;;;;;;5116237;28;20449;-80
2021/12/17 06:00:41;;;;;;;43.43;26.57;;;13.00;99.90;;;;;;5111925;28;20556;-81
2021/12/17 06:03:08;;;;;;;41.57;24.60;;;12.40;99.90;;;;;;5120429;28;20782;-81
2021/12/17 06:05:35;;;;;;;43.93;24.30;;;12.20;99.90;;;;;;5122395;28;20517;-83
2021/12/17 06:08:03;;;;;;;51.57;24.77;;;11.90;99.90;;;;;;5118240;28;20463;-81
2021/12/17 06:10:30;;;;;;;49.73;26.70;;;11.70;99.90;;;;;;5115907;28;20463;-79
2021/12/17 06:12:58;;;;;;;52.93;28.80;;;11.50;99.90;;;;;;5100478;28;20474;-80
2021/12/17 06:15:25;;;;;;;53.50;28.13;;;11.30;99.90;;;;;;5096317;28;21111;-82
2021/12/17 06:17:52;;;;;;;64.43;28.53;;;11.20;99.90;;;;;;5095791;28;20574;-81
2021/12/17 06:20:22;;;;;;;68.47;32.60;;;11.00;99.90;;;;;;5095977;28;20483;-82
2021/12/17 06:22:49;;;;;;;48.77;27.33;;;10.70;99.90;;;;;;5095670;28;20492;-81
2021/12/17 06:25:16;;;;;;;62.97;30.50;;;10.50;99.90;;;;;;5095533;28;20448;-82
2021/12/17 06:27:43;;;;;;;57.80;28.77;;;10.40;99.90;;;;;;5095684;28;20453;-82
2021/12/17 06:30:14;;;;;;;81.97;35.57;;;10.50;99.90;;;;;;5099961;28;20462;-82
2021/12/17 06:32:41;;;;;;;52.77;26.83;;;10.10;99.90;;;;;;5107527;28;20470;-81
2021/12/17 06:35:09;;;;;;;58.03;28.63;;;10.10;99.90;;;;;;5116293;28;20957;-81
2021/12/17 06:37:38;;;;;;;46.83;26.23;;;10.10;99.90;;;;;;5114884;28;20446;-82
2021/12/17 06:40:06;;;;;;;52.80;28.07;;;10.10;99.90;;;;;;5100127;28;20463;-81
2021/12/17 06:42:33;;;;;;;48.73;24.67;;;10.10;99.90;;;;;;5103097;28;20538;-81
2021/12/17 06:45:04;;;;;;;67.77;30.80;;;10.10;99.90;;;;;;5111755;28;20459;-83
2021/12/17 06:47:34;;;;;;;64.53;29.90;;;9.90;99.90;;;;;;5118927;28;20480;-83
2021/12/17 06:54:38;;;;;;;48.40;26.70;;;9.90;99.90;;;;;;5112225;28;20904;-82
2021/12/17 06:56:17;;;;;;;47.87;24.70;;;9.70;99.90;;;;;;5106589;28;20501;-82
2021/12/17 06:58:49;;;;;;;48.73;26.87;;;9.70;99.90;;;;;;5104776;28;20449;-81
2021/12/17 07:05:49;;;;;;;40.97;24.93;;;9.80;99.90;;;;;;5106897;28;21327;-81
2021/12/17 07:18:02;;;;;;;57.63;26.00;;;9.70;99.90;;;;;;5103017;28;20418;-80
2021/12/17 07:21:06;;;;;;;56.87;26.70;;;9.80;99.90;;;;;;5102174;28;20453;-81
2021/12/17 07:34:51;;;;;;;42.30;21.20;;;9.60;99.90;;;;;;5106521;28;20482;-82
2021/12/17 07:40:04;;;;;;;37.33;20.77;;;9.60;99.90;;;;;;5104923;28;21053;-81
2021/12/17 07:42:32;;;;;;;33.30;19.33;;;9.70;99.90;;;;;;5098621;28;20472;-82
2021/12/17 07:44:59;;;;;;;35.33;18.60;;;9.70;99.90;;;;;;5106434;28;20464;-82
2021/12/17 07:47:26;;;;;;;36.23;18.33;;;9.70;99.90;;;;;;5122343;28;20526;-81
2021/12/17 07:49:54;;;;;;;28.40;16.43;;;9.60;99.90;;;;;;5105972;28;20467;-83
2021/12/17 07:52:22;;;;;;;26.87;15.27;;;9.60;99.90;;;;;;5111960;28;20435;-81
2021/12/17 07:54:49;;;;;;;33.77;17.50;;;9.60;99.90;;;;;;5104359;28;20465;-82
2021/12/17 07:57:16;;;;;;;30.50;16.40;;;9.60;99.90;;;;;;5104443;28;20948;-80
2021/12/17 07:59:43;;;;;;;37.80;18.40;;;9.60;99.90;;;;;;5107709;28;20818;-81
2021/12/17 08:02:10;;;;;;;30.10;16.93;;;9.50;99.90;;;;;;5109325;28;20449;-80
2021/12/17 08:04:36;;;;;;;30.33;17.47;;;9.60;99.90;;;;;;5111730;28;20485;-81
2021/12/17 08:07:04;;;;;;;32.43;18.70;;;9.50;99.90;;;;;;5104079;28;20446;-81
2021/12/17 08:09:33;;;;;;;31.70;18.70;;;9.60;99.90;;;;;;5108278;28;20445;-80
2021/12/17 08:12:00;;;;;;;30.27;16.07;;;9.40;99.90;;;;;;5105974;28;20517;-80
2021/12/17 08:14:29;;;;;;;41.47;18.63;;;9.40;99.90;;;;;;5103203;28;20568;-80
2021/12/17 08:17:02;;;;;;;32.60;15.10;;;9.40;99.90;;;;;;5098497;28;20459;-81
2021/12/17 08:25:09;;;;;;;22.53;12.53;;;9.20;99.90;;;;;;5102621;28;20478;-80
2021/12/17 08:27:48;;;;;;;23.00;13.40;;;9.30;99.90;;;;;;5102688;28;20455;-82
2021/12/17 08:30:25;;;;;;;25.07;12.43;;;9.30;99.90;;;;;;5106312;28;20450;-79
2021/12/17 08:32:52;;;;;;;20.40;12.63;;;9.40;99.90;;;;;;5112059;28;20980;-83
2021/12/17 08:35:19;;;;;;;28.63;13.57;;;9.40;99.90;;;;;;5106986;28;20483;-80
2021/12/17 08:37:46;;;;;;;20.57;11.80;;;9.30;99.90;;;;;;5097651;28;20454;-82
2021/12/17 08:40:15;;;;;;;19.67;11.17;;;9.30;99.90;;;;;;5101575;28;20844;-81
2021/12/17 08:42:42;;;;;;;23.03;13.60;;;9.40;99.90;;;;;;5116587;28;20456;-83
2021/12/17 08:45:09;;;;;;;21.00;12.43;;;9.50;99.90;;;;;;5106949;28;20532;-81
2021/12/17 08:47:37;;;;;;;21.60;12.80;;;9.50;99.90;;;;;;5112771;28;20455;-80
2021/12/17 08:50:07;;;;;;;21.93;13.40;;;9.50;99.90;;;;;;5116503;28;20457;-81
2021/12/17 08:52:34;;;;;;;22.53;12.33;;;9.50;99.90;;;;;;5115831;28;20470;-81
2021/12/17 08:55:01;;;;;;;21.70;12.47;;;9.60;99.90;;;;;;5118253;28;20450;-80
2021/12/17 08:57:29;;;;;;;21.97;13.50;;;9.70;99.90;;;;;;5111284;28;20893;-82
2021/12/17 08:59:57;;;;;;;26.47;16.13;;;9.60;99.90;;;;;;5111608;28;20486;-82
2021/12/17 09:02:24;;;;;;;25.03;13.60;;;9.60;99.90;;;;;;5097334;28;20559;-82
2021/12/17 09:04:51;;;;;;;22.57;13.90;;;9.60;99.90;;;;;;5100226;28;20497;-82
2021/12/17 09:07:18;;;;;;;23.63;14.67;;;9.70;99.90;;;;;;5099146;28;20461;-81
2021/12/17 09:09:47;;;;;;;22.33;13.10;;;9.60;99.90;;;;;;5110510;28;20893;-81
2021/12/17 09:12:14;;;;;;;19.70;12.10;;;9.60;99.90;;;;;;5107665;28;20481;-81
2021/12/17 09:14:42;;;;;;;26.63;13.60;;;9.60;99.90;;;;;;5105840;28;20477;-82
2021/12/17 09:17:09;;;;;;;21.80;11.80;;;9.60;99.90;;;;;;5097401;28;20473;-80
2021/12/17 09:19:36;;;;;;;14.87;9.93;;;9.60;99.90;;;;;;5098264;28;20455;-81
2021/12/17 09:22:03;;;;;;;19.33;11.93;;;9.60;99.90;;;;;;5100775;28;20463;-82
2021/12/17 09:24:30;;;;;;;16.67;10.43;;;9.70;99.90;;;;;;5106658;28;20487;-81
2021/12/17 09:26:58;;;;;;;19.50;12.20;;;9.70;99.90;;;;;;5109804;28;20448;-82
2021/12/17 09:29:24;;;;;;;16.20;10.90;;;9.70;99.90;;;;;;5112287;28;20469;-80
2021/12/17 09:31:52;;;;;;;17.50;12.20;;;9.70;99.90;;;;;;5102241;28;20453;-79
2021/12/17 09:34:19;;;;;;;13.53;9.70;;;9.70;99.90;;;;;;5114021;28;20464;-80
2021/12/17 09:36:46;;;;;;;20.40;10.90;;;9.90;99.90;;;;;;5094836;28;20445;-78
2021/12/17 09:39:13;;;;;;;13.73;8.93;;;9.90;99.90;;;;;;5104127;28;20450;-79
2021/12/17 09:41:43;;;;;;;12.63;8.70;;;9.90;99.90;;;;;;5112154;28;20541;-80
2021/12/17 09:44:13;;;;;;;14.50;9.13;;;10.00;99.90;;;;;;5113295;28;20550;-79
2021/12/17 09:46:41;;;;;;;21.03;12.13;;;10.00;99.90;;;;;;5093058;28;20460;-75
2021/12/17 09:49:11;;;;;;;14.77;10.10;;;9.90;99.90;;;;;;5091387;28;20462;-78
2021/12/17 09:51:38;;;;;;;16.73;10.97;;;10.00;99.90;;;;;;5109893;28;20526;-77
2021/12/17 09:54:05;;;;;;;15.97;9.90;;;10.10;99.90;;;;;;5109020;28;20456;-77
2021/12/17 09:56:32;;;;;;;21.70;12.23;;;10.10;99.90;;;;;;5097342;28;20485;-80
2021/12/17 09:59:01;;;;;;;16.30;11.43;;;10.10;99.90;;;;;;5100892;28;20444;-81
2021/12/17 10:01:28;;;;;;;13.87;10.37;;;10.10;99.90;;;;;;5100227;28;20460;-80
2021/12/17 10:04:14;;;;;;;21.83;13.17;;;10.20;99.90;;;;;;5096028;28;20491;-81
2021/12/17 10:06:41;;;;;;;15.73;9.77;;;10.10;99.90;;;;;;5099474;28;20446;-80
2021/12/17 10:09:08;;;;;;;15.40;11.53;;;10.30;99.90;;;;;;5097416;28;20454;-81
2021/12/17 10:11:35;;;;;;;17.10;11.90;;;10.40;99.90;;;;;;5102108;28;20455;-81
2021/12/17 10:14:17;;;;;;;16.30;9.27;;;10.30;99.90;;;;;;5105759;28;20474;-80
2021/12/17 10:16:44;;;;;;;14.30;10.50;;;10.30;99.90;;;;;;5105078;28;20841;-80
2021/12/17 10:19:12;;;;;;;16.00;9.97;;;10.20;99.90;;;;;;5099849;28;20446;-77
2021/12/17 10:21:46;;;;;;;12.93;8.93;;;10.20;99.90;;;;;;5101450;28;21255;-79
2021/12/17 10:24:23;;;;;;;15.20;10.20;;;10.20;99.90;;;;;;5106596;28;20567;-78
2021/12/17 10:26:49;;;;;;;14.80;10.23;;;10.10;99.90;;;;;;5096819;28;20446;-79
2021/12/17 10:29:21;;;;;;;15.03;9.43;;;10.10;99.90;;;;;;5100610;28;20457;-78
2021/12/17 10:31:56;;;;;;;13.53;9.67;;;10.20;99.90;;;;;;5103861;28;20446;-79
2021/12/17 10:34:25;;;;;;;7.70;5.40;;;10.30;99.90;;;;;;5076175;28;20470;-80
2021/12/17 10:36:52;;;;;;;8.93;7.17;;;12.90;99.90;;;;;;5112858;28;20463;-79
2021/12/17 10:39:24;;;;;;;8.60;5.80;;;13.60;99.90;;;;;;5095074;28;20455;-79
2021/12/17 10:41:51;;;;;;;8.87;5.60;;;13.70;99.90;;;;;;5093441;28;20458;-79
2021/12/17 10:44:20;;;;;;;9.27;6.43;;;13.80;99.90;;;;;;5103631;28;20481;-78
2021/12/17 10:47:06;;;;;;;8.00;6.20;;;13.80;99.90;;;;;;5093495;28;20489;-80
2021/12/17 10:49:35;;;;;;;7.67;5.37;;;13.70;99.90;;;;;;5101987;28;20482;-78
2021/12/17 10:52:14;;;;;;;9.00;6.17;;;13.70;99.90;;;;;;5112260;28;20546;-78
2021/12/17 10:54:40;;;;;;;7.53;5.50;;;13.70;99.90;;;;;;5094070;28;20491;-80
2021/12/17 10:57:08;;;;;;;6.60;5.43;;;13.60;99.90;;;;;;5094621;28;20535;-79
2021/12/17 10:59:37;;;;;;;8.93;5.67;;;13.80;99.90;;;;;;5100665;28;20460;-80
2021/12/17 11:02:11;;;;;;;10.10;7.43;;;13.70;99.90;;;;;;5097215;28;20449;-79
2021/12/17 11:04:41;;;;;;;7.90;6.40;;;13.30;99.90;;;;;;5097204;28;20599;-79
2021/12/17 11:07:10;;;;;;;11.23;7.83;;;12.90;99.90;;;;;;5093544;28;20534;-79
2021/12/17 11:09:40;;;;;;;13.90;7.93;;;12.40;99.90;;;;;;5100485;28;20449;-79
2021/12/17 11:12:25;;;;;;;10.47;7.60;;;12.00;99.90;;;;;;5101297;28;20540;-79
2021/12/17 11:14:52;;;;;;;9.17;7.43;;;11.70;99.90;;;;;;5105446;28;20450;-79
2021/12/17 11:17:21;;;;;;;12.10;7.83;;;11.20;99.90;;;;;;5104854;28;20536;-81
2021/12/17 11:19:52;;;;;;;10.77;7.13;;;10.90;99.90;;;;;;5092220;28;20828;-79
2021/12/17 11:22:20;;;;;;;10.53;8.13;;;10.80;99.90;;;;;;5091432;28;20432;-77
2021/12/17 11:24:48;;;;;;;8.13;5.97;;;10.80;99.90;;;;;;5096718;28;20824;-80
2021/12/17 11:27:15;;;;;;;7.97;6.03;;;10.70;99.90;;;;;;5109176;28;20461;-80
2021/12/17 11:29:42;;;;;;;9.20;5.80;;;10.70;99.90;;;;;;5098471;28;20959;-79
2021/12/17 11:32:09;;;;;;;8.40;4.83;;;10.70;99.90;;;;;;5103794;28;20470;-80
2021/12/17 11:34:36;;;;;;;7.23;4.80;;;10.60;99.90;;;;;;5099798;28;20450;-79
2021/12/17 11:37:08;;;;;;;8.40;5.70;;;10.40;99.90;;;;;;5106970;28;20456;-79
2021/12/17 11:39:42;;;;;;;7.93;5.20;;;10.50;99.90;;;;;;5098273;28;20440;-79
2021/12/17 11:42:29;;;;;;;7.40;4.83;;;10.40;99.90;;;;;;5109152;28;20548;-80
2021/12/17 11:47:38;;;;;;;8.70;5.80;;;10.20;99.90;;;;;;5114877;28;20446;-80
2021/12/17 11:50:09;;;;;;;9.07;4.93;;;9.90;99.90;;;;;;5112741;28;20444;-79
2021/12/17 11:52:43;;;;;;;7.07;5.03;;;9.90;99.90;;;;;;5103225;28;20461;-80
2021/12/17 11:55:28;;;;;;;8.20;4.70;;;9.70;99.90;;;;;;5107545;28;20791;-78
2021/12/17 11:57:59;;;;;;;5.53;3.63;;;9.80;99.90;;;;;;5116166;28;20448;-79
2021/12/17 12:00:31;;;;;;;6.80;4.00;;;9.80;99.90;;;;;;5103180;28;20458;-79
2021/12/17 12:03:15;;;;;;;4.87;3.40;;;9.80;99.90;;;;;;5096195;28;20471;-78
2021/12/17 12:05:44;;;;;;;4.20;3.20;;;9.90;99.90;;;;;;5102908;28;20482;-81
2021/12/17 12:08:33;;;;;;;5.20;3.43;;;10.00;99.90;;;;;;5105634;28;20442;-80
2021/12/17 12:11:06;;;;;;;5.23;3.30;;;10.00;99.90;;;;;;5116459;28;20481;-80
2021/12/17 12:13:38;;;;;;;6.13;3.73;;;10.00;99.90;;;;;;5117095;28;20461;-80
2021/12/17 12:16:07;;;;;;;5.50;3.70;;;10.10;99.90;;;;;;5101253;28;20456;-78
2021/12/17 12:18:57;;;;;;;8.80;3.97;;;10.20;99.90;;;;;;5116943;28;20450;-80
2021/12/17 12:21:26;;;;;;;5.20;3.57;;;10.10;99.90;;;;;;5093681;28;20464;-78
2021/12/17 12:24:10;;;;;;;6.30;4.00;;;10.10;99.90;;;;;;5098899;28;20478;-78
2021/12/17 12:26:40;;;;;;;6.10;4.00;;;10.10;99.90;;;;;;5097896;28;20463;-80
2021/12/17 12:29:12;;;;;;;5.00;3.43;;;10.30;99.90;;;;;;5099458;28;20479;-79
2021/12/17 12:31:45;;;;;;;5.87;3.30;;;10.30;99.90;;;;;;5100384;28;20460;-82
2021/12/17 12:34:14;;;;;;;4.80;3.03;;;10.00;99.90;;;;;;5116211;28;20464;-79
2021/12/17 12:36:51;;;;;;;3.80;2.90;;;10.00;99.90;;;;;;5098739;28;20452;-79
2021/12/17 12:39:22;;;;;;;6.43;3.30;;;9.80;99.90;;;;;;5110236;28;20476;-80
2021/12/17 12:41:58;;;;;;;6.23;4.30;;;9.80;99.90;;;;;;5105482;28;20459;-80
2021/12/17 12:44:58;;;;;;;5.50;4.40;;;9.90;99.90;;;;;;5116743;28;20868;-80
2021/12/17 12:47:40;;;;;;;7.30;4.83;;;9.90;99.90;;;;;;5103876;28;21038;-79
2021/12/17 12:50:10;;;;;;;8.10;5.20;;;9.80;99.90;;;;;;5097853;28;20759;-79
2021/12/17 12:52:39;;;;;;;7.87;5.83;;;9.90;99.90;;;;;;5109486;28;21068;-79
2021/12/17 12:55:12;;;;;;;10.23;6.40;;;9.80;99.90;;;;;;5104491;28;20447;-81
2021/12/17 12:57:41;;;;;;;8.57;6.53;;;9.70;99.90;;;;;;5111411;28;20465;-80
2021/12/17 13:00:11;;;;;;;8.13;6.27;;;9.70;99.90;;;;;;5102648;28;20448;-80
2021/12/17 13:02:39;;;;;;;9.70;6.40;;;9.80;99.90;;;;;;5111224;28;20491;-80
2021/12/17 13:05:07;;;;;;;9.33;5.80;;;9.80;99.90;;;;;;5110424;28;21054;-81
2021/12/17 13:07:36;;;;;;;8.73;6.47;;;9.90;99.90;;;;;;5123657;28;20530;-80
2021/12/17 13:10:16;;;;;;;7.07;5.43;;;10.00;99.90;;;;;;5118786;28;20959;-81
2021/12/17 13:12:50;;;;;;;6.90;5.50;;;10.00;99.90;;;;;;5123097;28;20533;-81
2021/12/17 13:15:31;;;;;;;10.47;6.10;;;9.80;99.90;;;;;;5116741;28;20455;-81
2021/12/17 13:20:56;;;;;;;10.10;5.70;;;9.80;99.90;;;;;;5103927;28;20483;-81
2021/12/17 13:23:23;;;;;;;5.93;4.33;;;10.00;99.90;;;;;;5111412;28;20466;-82
2021/12/17 13:26:06;;;;;;;7.20;4.47;;;10.00;99.90;;;;;;5110074;28;20546;-81
2021/12/17 13:28:48;;;;;;;6.47;4.87;;;10.10;99.90;;;;;;5102301;28;20446;-81
2021/12/17 13:31:30;;;;;;;5.57;4.53;;;10.00;99.90;;;;;;5113427;28;20446;-79
2021/12/17 13:33:57;;;;;;;11.40;5.90;;;10.00;99.90;;;;;;5110417;28;20505;-80
2021/12/17 13:36:24;;;;;;;6.33;4.87;;;10.20;99.90;;;;;;5095672;28;20448;-80
2021/12/17 13:38:57;;;;;;;9.10;5.73;;;10.10;99.90;;;;;;5109690;28;20534;-79
2021/12/17 13:41:36;;;;;;;8.93;6.10;;;10.20;99.90;;;;;;5099254;28;20483;-79
2021/12/17 13:44:03;;;;;;;7.17;5.27;;;10.30;99.90;;;;;;5108488;28;20750;-80
2021/12/17 13:46:30;;;;;;;6.23;5.30;;;10.40;99.90;;;;;;5101765;28;20483;-80
2021/12/17 13:48:57;;;;;;;7.43;4.47;;;10.50;99.90;;;;;;5114088;28;20526;-81
2021/12/17 13:51:24;;;;;;;7.00;3.87;;;10.50;99.90;;;;;;5101603;28;20447;-81
2021/12/17 13:53:52;;;;;;;7.93;4.90;;;10.60;99.90;;;;;;5108283;28;20476;-81
2021/12/17 13:56:19;;;;;;;5.57;4.23;;;10.50;99.90;;;;;;5110990;28;20456;-80
2021/12/17 13:58:47;;;;;;;5.67;4.80;;;10.30;99.90;;;;;;5112102;28;20526;-82
2021/12/17 14:01:22;;;;;;;5.60;4.40;;;10.40;99.90;;;;;;5102183;28;20518;-81
2021/12/17 14:03:49;;;;;;;10.00;5.70;;;10.30;99.90;;;;;;5115321;28;20456;-81
2021/12/17 14:06:22;;;;;;;6.27;4.73;;;10.40;99.90;;;;;;5109042;28;20592;-80
2021/12/17 14:08:51;;;;;;;12.90;5.40;;;10.40;99.90;;;;;;5102276;28;20570;-80
2021/12/17 14:11:23;;;;;;;10.10;5.90;;;10.40;99.90;;;;;;5099909;28;20827;-81
2021/12/17 14:13:52;;;;;;;9.60;5.77;;;10.40;99.90;;;;;;5103142;28;20463;-81
2021/12/17 14:16:28;;;;;;;9.33;5.10;;;10.40;99.90;;;;;;5107133;28;20450;-81
2021/12/17 14:18:58;;;;;;;11.30;5.60;;;10.40;99.90;;;;;;5118467;28;20520;-79
2021/12/17 14:21:28;;;;;;;7.60;4.47;;;10.20;99.90;;;;;;5119806;28;20511;-80
2021/12/17 14:23:55;;;;;;;5.00;4.13;;;10.20;99.90;;;;;;5098454;28;20477;-81
2021/12/17 14:26:27;;;;;;;6.80;4.50;;;10.20;99.90;;;;;;5100825;28;20555;-82
2021/12/17 14:28:56;;;;;;;8.63;4.87;;;10.20;99.90;;;;;;5097531;28;20455;-80
2021/12/17 14:31:25;;;;;;;11.50;5.30;;;10.20;99.90;;;;;;5110207;28;20488;-80
2021/12/17 14:33:57;;;;;;;5.90;3.70;;;10.20;99.90;;;;;;5116874;28;20558;-80
2021/12/17 14:36:29;;;;;;;6.00;4.37;;;10.20;99.90;;;;;;5118159;28;20454;-80
2021/12/17 14:39:05;;;;;;;7.13;4.73;;;10.20;99.90;;;;;;5114457;28;20424;-81
2021/12/17 14:41:39;;;;;;;8.83;4.53;;;10.10;99.90;;;;;;5117287;28;20463;-79
2021/12/17 14:44:22;;;;;;;6.03;4.77;;;10.00;99.90;;;;;;5113608;28;20493;-79
2021/12/17 14:46:52;;;;;;;8.10;4.87;;;10.00;99.90;;;;;;5097068;28;20497;-78
2021/12/17 14:57:14;;;;;;;7.20;6.20;;;10.00;99.90;;;;;;5108046;28;20464;-80
2021/12/17 15:00:48;;;;;;;5.90;4.53;;;10.00;99.90;;;;;;5099490;28;20428;-78
2021/12/17 15:03:39;;;;;;;5.97;4.53;;;9.90;99.90;;;;;;5103425;28;20557;-78
2021/12/17 15:06:07;;;;;;;6.60;5.50;;;9.90;99.90;;;;;;5108118;28;20483;-78
2021/12/17 15:08:34;;;;;;;10.43;7.27;;;9.80;99.90;;;;;;5098549;28;20511;-79
2021/12/17 15:11:08;;;;;;;8.43;6.30;;;9.90;99.90;;;;;;5100614;28;20457;-79